sensor_id;sensor_type;location;lat;lon;timestamp;pressure;altitude;pressure_sealevel;temperature;humidity
45369;BME280;51342;55.250;37.668;2023-05-23T00:09:55;99933.44;;;8.90;75.20
45369;BME280;51342;55.250;37.668;2023-05-23T00:12:27;99924.94;;;8.91;74.85
45369;BME280;51342;55.250;37.668;2023-05-23T00:14:59;99926.81;;;8.94;74.85
45369;BME280;51342;55.250;37.668;2023-05-23T00:17:31;99907.47;;;8.87;74.59
45369;BME280;51342;55.250;37.668;2023-05-23T00:20:02;99917.97;;;8.90;74.83
45369;BME280;51342;55.250;37.668;2023-05-23T00:22:35;99918.88;;;8.91;74.89
45369;BME280;51342;55.250;37.668;2023-05-23T00:25:12;99915.09;;;8.86;74.50
45369;BME280;51342;55.250;37.668;2023-05-23T00:27:43;99913.09;;;8.82;75.01
45369;BME280;51342;55.250;37.668;2023-05-23T00:30:15;99916.25;;;8.77;75.03
45369;BME280;51342;55.250;37.668;2023-05-23T00:32:46;99915.44;;;8.79;75.00
45369;BME280;51342;55.250;37.668;2023-05-23T00:35:18;99916.34;;;8.79;75.36
45369;BME280;51342;55.250;37.668;2023-05-23T00:37:49;99910.53;;;8.82;75.16
45369;BME280;51342;55.250;37.668;2023-05-23T00:40:22;99914.56;;;8.78;74.84
45369;BME280;51342;55.250;37.668;2023-05-23T00:42:53;99923.91;;;8.76;75.18
45369;BME280;51342;55.250;37.668;2023-05-23T00:45:25;99914.94;;;8.71;75.13
45369;BME280;51342;55.250;37.668;2023-05-23T00:47:57;99921.56;;;8.67;75.24
45369;BME280;51342;55.250;37.668;2023-05-23T00:50:30;99914.53;;;8.65;75.42
45369;BME280;51342;55.250;37.668;2023-05-23T00:53:01;99917.91;;;8.64;75.73
45369;BME280;51342;55.250;37.668;2023-05-23T00:55:33;99921.38;;;8.64;75.75
45369;BME280;51342;55.250;37.668;2023-05-23T00:58:05;99913.31;;;8.60;75.76
45369;BME280;51342;55.250;37.668;2023-05-23T01:00:37;99918.56;;;8.61;75.55
45369;BME280;51342;55.250;37.668;2023-05-23T01:03:09;99920.25;;;8.61;75.56
45369;BME280;51342;55.250;37.668;2023-05-23T01:05:47;99917.16;;;8.53;75.42
45369;BME280;51342;55.250;37.668;2023-05-23T01:08:20;99927.50;;;8.53;75.69
45369;BME280;51342;55.250;37.668;2023-05-23T01:10:52;99910.91;;;8.49;76.05
45369;BME280;51342;55.250;37.668;2023-05-23T01:13:42;99914.19;;;8.47;75.85
45369;BME280;51342;55.250;37.668;2023-05-23T01:16:31;99901.19;;;8.45;75.96
45369;BME280;51342;55.250;37.668;2023-05-23T01:19:24;99907.72;;;8.40;75.67
45369;BME280;51342;55.250;37.668;2023-05-23T01:22:11;99898.16;;;8.39;75.97
45369;BME280;51342;55.250;37.668;2023-05-23T01:24:54;99904.44;;;8.43;75.46
45369;BME280;51342;55.250;37.668;2023-05-23T01:27:47;99911.84;;;8.38;75.92
45369;BME280;51342;55.250;37.668;2023-05-23T01:30:23;99903.53;;;8.42;75.97
45369;BME280;51342;55.250;37.668;2023-05-23T01:32:55;99904.66;;;8.46;76.14
45369;BME280;51342;55.250;37.668;2023-05-23T01:35:29;99904.34;;;8.41;76.05
45369;BME280;51342;55.250;37.668;2023-05-23T01:38:01;99894.69;;;8.39;75.78
45369;BME280;51342;55.250;37.668;2023-05-23T01:40:33;99901.53;;;8.38;76.14
45369;BME280;51342;55.250;37.668;2023-05-23T01:43:05;99902.41;;;8.39;76.13
45369;BME280;51342;55.250;37.668;2023-05-23T01:45:37;99901.66;;;8.40;76.20
45369;BME280;51342;55.250;37.668;2023-05-23T01:48:08;99893.78;;;8.38;76.25
45369;BME280;51342;55.250;37.668;2023-05-23T01:50:42;99905.88;;;8.39;76.29
45369;BME280;51342;55.250;37.668;2023-05-23T01:53:19;99899.84;;;8.39;76.03
45369;BME280;51342;55.250;37.668;2023-05-23T01:55:51;99898.94;;;8.38;75.95
45369;BME280;51342;55.250;37.668;2023-05-23T01:58:25;99897.97;;;8.36;76.29
45369;BME280;51342;55.250;37.668;2023-05-23T02:00:57;99898.06;;;8.38;76.19
45369;BME280;51342;55.250;37.668;2023-05-23T02:03:29;99899.75;;;8.37;76.32
45369;BME280;51342;55.250;37.668;2023-05-23T02:06:01;99886.50;;;8.33;75.92
45369;BME280;51342;55.250;37.668;2023-05-23T02:08:33;99896.38;;;8.38;76.10
45369;BME280;51342;55.250;37.668;2023-05-23T02:11:04;99904.09;;;8.38;76.39
45369;BME280;51342;55.250;37.668;2023-05-23T02:13:38;99900.53;;;8.36;76.37
45369;BME280;51342;55.250;37.668;2023-05-23T02:16:09;99904.91;;;8.37;76.51
45369;BME280;51342;55.250;37.668;2023-05-23T02:18:41;99898.94;;;8.38;76.77
45369;BME280;51342;55.250;37.668;2023-05-23T02:21:13;99900.88;;;8.41;76.69
45369;BME280;51342;55.250;37.668;2023-05-23T02:23:44;99896.91;;;8.46;77.04
45369;BME280;51342;55.250;37.668;2023-05-23T02:26:15;99895.44;;;8.49;77.26
45369;BME280;51342;55.250;37.668;2023-05-23T02:28:48;99888.81;;;8.53;77.34
45369;BME280;51342;55.250;37.668;2023-05-23T02:31:20;99891.81;;;8.59;77.27
45369;BME280;51342;55.250;37.668;2023-05-23T02:33:51;99888.31;;;8.59;77.23
45369;BME280;51342;55.250;37.668;2023-05-23T02:36:24;99897.19;;;8.62;77.90
45369;BME280;51342;55.250;37.668;2023-05-23T02:38:56;99901.16;;;8.70;78.12
45369;BME280;51342;55.250;37.668;2023-05-23T02:41:28;99899.88;;;8.77;78.03
45369;BME280;51342;55.250;37.668;2023-05-23T02:44:00;99911.41;;;8.82;78.20
45369;BME280;51342;55.250;37.668;2023-05-23T02:46:32;99906.00;;;8.91;78.65
45369;BME280;51342;55.250;37.668;2023-05-23T02:49:03;99898.16;;;9.02;79.08
45369;BME280;51342;55.250;37.668;2023-05-23T02:51:34;99901.16;;;9.22;79.26
45369;BME280;51342;55.250;37.668;2023-05-23T02:54:06;99897.69;;;9.48;79.65
45369;BME280;51342;55.250;37.668;2023-05-23T02:56:40;99905.00;;;9.68;79.65
45369;BME280;51342;55.250;37.668;2023-05-23T02:59:12;99898.53;;;9.88;80.16
45369;BME280;51342;55.250;37.668;2023-05-23T03:01:43;99892.75;;;10.05;80.01
45369;BME280;51342;55.250;37.668;2023-05-23T03:04:15;99897.38;;;10.24;80.01
45369;BME280;51342;55.250;37.668;2023-05-23T03:06:46;99891.47;;;10.40;80.13
45369;BME280;51342;55.250;37.668;2023-05-23T03:09:19;99887.03;;;10.52;80.13
45369;BME280;51342;55.250;37.668;2023-05-23T03:11:50;99895.78;;;10.69;80.00
45369;BME280;51342;55.250;37.668;2023-05-23T03:14:22;99877.34;;;10.78;80.15
45369;BME280;51342;55.250;37.668;2023-05-23T03:16:53;99878.06;;;10.90;80.63
45369;BME280;51342;55.250;37.668;2023-05-23T03:19:25;99880.56;;;11.03;80.97
45369;BME280;51342;55.250;37.668;2023-05-23T03:21:56;99872.53;;;11.13;80.92
45369;BME280;51342;55.250;37.668;2023-05-23T03:24:28;99865.53;;;11.27;80.90
45369;BME280;51342;55.250;37.668;2023-05-23T03:26:59;99858.44;;;11.39;80.99
45369;BME280;51342;55.250;37.668;2023-05-23T03:29:32;99865.56;;;11.58;80.86
45369;BME280;51342;55.250;37.668;2023-05-23T03:32:04;99873.13;;;11.70;81.02
45369;BME280;51342;55.250;37.668;2023-05-23T03:34:36;99866.97;;;11.83;80.88
45369;BME280;51342;55.250;37.668;2023-05-23T03:37:08;99874.50;;;11.94;80.88
45369;BME280;51342;55.250;37.668;2023-05-23T03:39:40;99873.31;;;12.04;80.47
45369;BME280;51342;55.250;37.668;2023-05-23T03:42:24;99865.78;;;12.09;80.62
45369;BME280;51342;55.250;37.668;2023-05-23T03:45:08;99865.44;;;12.19;79.95
45369;BME280;51342;55.250;37.668;2023-05-23T03:47:40;99869.28;;;12.26;79.45
45369;BME280;51342;55.250;37.668;2023-05-23T03:50:13;99862.78;;;12.34;78.93
45369;BME280;51342;55.250;37.668;2023-05-23T03:52:44;99871.72;;;12.39;78.46
45369;BME280;51342;55.250;37.668;2023-05-23T03:55:16;99865.13;;;12.45;78.16
45369;BME280;51342;55.250;37.668;2023-05-23T03:58:02;99881.91;;;12.52;77.98
45369;BME280;51342;55.250;37.668;2023-05-23T04:00:33;99874.44;;;12.58;77.37
45369;BME280;51342;55.250;37.668;2023-05-23T04:03:07;99874.84;;;12.66;76.43
45369;BME280;51342;55.250;37.668;2023-05-23T04:05:40;99870.88;;;12.72;76.15
45369;BME280;51342;55.250;37.668;2023-05-23T04:08:11;99874.50;;;12.76;75.76
45369;BME280;51342;55.250;37.668;2023-05-23T04:10:43;99882.75;;;12.85;75.83
45369;BME280;51342;55.250;37.668;2023-05-23T04:13:14;99881.22;;;12.89;75.32
45369;BME280;51342;55.250;37.668;2023-05-23T04:15:46;99864.19;;;12.94;75.14
45369;BME280;51342;55.250;37.668;2023-05-23T04:18:31;99864.63;;;13.03;75.06
45369;BME280;51342;55.250;37.668;2023-05-23T04:21:03;99871.31;;;13.16;74.63
45369;BME280;51342;55.250;37.668;2023-05-23T04:23:36;99867.50;;;13.25;75.13
45369;BME280;51342;55.250;37.668;2023-05-23T04:26:08;99874.88;;;13.34;74.54
45369;BME280;51342;55.250;37.668;2023-05-23T04:28:46;99877.91;;;13.43;74.06
45369;BME280;51342;55.250;37.668;2023-05-23T04:31:20;99868.69;;;13.50;73.87
45369;BME280;51342;55.250;37.668;2023-05-23T04:33:55;99872.41;;;13.55;73.62
45369;BME280;51342;55.250;37.668;2023-05-23T04:36:28;99871.78;;;13.61;72.85
45369;BME280;51342;55.250;37.668;2023-05-23T04:39:00;99864.09;;;13.62;72.55
45369;BME280;51342;55.250;37.668;2023-05-23T04:41:34;99864.38;;;13.68;72.08
45369;BME280;51342;55.250;37.668;2023-05-23T04:44:29;99874.84;;;13.70;72.47
45369;BME280;51342;55.250;37.668;2023-05-23T04:47:14;99890.59;;;13.73;72.46
45369;BME280;51342;55.250;37.668;2023-05-23T04:54:19;99871.03;;;13.81;72.51
45369;BME280;51342;55.250;37.668;2023-05-23T04:56:52;99877.63;;;13.92;71.87
45369;BME280;51342;55.250;37.668;2023-05-23T04:59:25;99878.00;;;14.00;71.22
45369;BME280;51342;55.250;37.668;2023-05-23T05:01:56;99875.22;;;14.15;70.74
45369;BME280;51342;55.250;37.668;2023-05-23T05:04:28;99880.91;;;14.25;70.71
45369;BME280;51342;55.250;37.668;2023-05-23T05:07:00;99877.03;;;14.35;70.51
45369;BME280;51342;55.250;37.668;2023-05-23T05:09:34;99866.06;;;14.42;70.40
45369;BME280;51342;55.250;37.668;2023-05-23T05:12:05;99866.28;;;14.47;69.81
45369;BME280;51342;55.250;37.668;2023-05-23T05:14:37;99862.16;;;14.52;69.74
45369;BME280;51342;55.250;37.668;2023-05-23T05:17:09;99870.25;;;14.58;69.79
45369;BME280;51342;55.250;37.668;2023-05-23T05:19:49;99863.50;;;14.63;69.66
45369;BME280;51342;55.250;37.668;2023-05-23T05:22:21;99869.06;;;14.71;69.64
45369;BME280;51342;55.250;37.668;2023-05-23T05:24:53;99869.28;;;14.75;69.60
45369;BME280;51342;55.250;37.668;2023-05-23T05:27:25;99858.25;;;14.81;69.08
45369;BME280;51342;55.250;37.668;2023-05-23T05:29:56;99863.63;;;14.85;68.65
45369;BME280;51342;55.250;37.668;2023-05-23T05:32:34;99871.63;;;14.69;69.49
45369;BME280;51342;55.250;37.668;2023-05-23T05:35:06;99869.59;;;14.83;68.55
45369;BME280;51342;55.250;37.668;2023-05-23T05:37:40;99869.84;;;14.89;68.72
45369;BME280;51342;55.250;37.668;2023-05-23T05:40:12;99869.19;;;14.93;68.10
45369;BME280;51342;55.250;37.668;2023-05-23T05:42:46;99864.22;;;14.99;67.57
45369;BME280;51342;55.250;37.668;2023-05-23T05:45:18;99868.81;;;15.05;67.23
45369;BME280;51342;55.250;37.668;2023-05-23T05:47:52;99857.78;;;15.12;67.00
45369;BME280;51342;55.250;37.668;2023-05-23T05:50:26;99866.84;;;15.20;66.82
45369;BME280;51342;55.250;37.668;2023-05-23T05:53:13;99868.03;;;15.28;66.27
45369;BME280;51342;55.250;37.668;2023-05-23T05:55:44;99862.25;;;15.35;66.90
45369;BME280;51342;55.250;37.668;2023-05-23T05:58:17;99858.25;;;15.44;66.52
45369;BME280;51342;55.250;37.668;2023-05-23T06:01:00;99861.19;;;15.53;66.36
45369;BME280;51342;55.250;37.668;2023-05-23T06:03:32;99849.81;;;15.51;65.31
45369;BME280;51342;55.250;37.668;2023-05-23T06:06:05;99856.44;;;15.63;65.70
45369;BME280;51342;55.250;37.668;2023-05-23T06:08:37;99850.63;;;15.71;66.14
45369;BME280;51342;55.250;37.668;2023-05-23T06:11:09;99839.44;;;15.73;65.70
45369;BME280;51342;55.250;37.668;2023-05-23T06:13:42;99850.34;;;15.85;65.27
45369;BME280;51342;55.250;37.668;2023-05-23T06:16:14;99844.66;;;15.96;64.81
45369;BME280;51342;55.250;37.668;2023-05-23T06:18:48;99843.44;;;16.10;66.14
45369;BME280;51342;55.250;37.668;2023-05-23T06:21:21;99838.75;;;16.24;65.19
45369;BME280;51342;55.250;37.668;2023-05-23T06:23:55;99835.97;;;16.43;64.20
45369;BME280;51342;55.250;37.668;2023-05-23T06:26:27;99829.72;;;16.63;62.66
45369;BME280;51342;55.250;37.668;2023-05-23T06:28:59;99832.00;;;16.78;62.50
45369;BME280;51342;55.250;37.668;2023-05-23T06:31:32;99829.00;;;16.91;63.28
45369;BME280;51342;55.250;37.668;2023-05-23T06:34:04;99823.44;;;17.08;62.82
45369;BME280;51342;55.250;37.668;2023-05-23T06:36:37;99820.63;;;17.29;61.90
45369;BME280;51342;55.250;37.668;2023-05-23T06:39:10;99819.34;;;17.43;61.62
45369;BME280;51342;55.250;37.668;2023-05-23T06:41:42;99815.28;;;17.53;61.93
45369;BME280;51342;55.250;37.668;2023-05-23T06:44:14;99812.88;;;17.59;61.02
45369;BME280;51342;55.250;37.668;2023-05-23T06:46:46;99823.66;;;17.69;60.50
45369;BME280;51342;55.250;37.668;2023-05-23T06:49:18;99810.84;;;17.77;60.43
45369;BME280;51342;55.250;37.668;2023-05-23T06:51:51;99804.09;;;17.85;61.11
45369;BME280;51342;55.250;37.668;2023-05-23T06:54:23;99807.94;;;17.96;60.00
45369;BME280;51342;55.250;37.668;2023-05-23T06:56:55;99807.34;;;18.07;60.33
45369;BME280;51342;55.250;37.668;2023-05-23T06:59:28;99804.03;;;18.12;60.29
45369;BME280;51342;55.250;37.668;2023-05-23T07:02:02;99801.69;;;18.21;59.64
45369;BME280;51342;55.250;37.668;2023-05-23T07:04:35;99794.06;;;18.31;58.69
45369;BME280;51342;55.250;37.668;2023-05-23T07:07:14;99796.91;;;18.38;58.44
45369;BME280;51342;55.250;37.668;2023-05-23T07:09:48;99798.91;;;18.48;57.91
45369;BME280;51342;55.250;37.668;2023-05-23T07:12:23;99798.34;;;18.60;58.30
45369;BME280;51342;55.250;37.668;2023-05-23T07:14:57;99803.06;;;18.72;57.29
45369;BME280;51342;55.250;37.668;2023-05-23T07:17:31;99799.09;;;18.86;58.87
45369;BME280;51342;55.250;37.668;2023-05-23T07:20:04;99804.59;;;18.97;57.60
45369;BME280;51342;55.250;37.668;2023-05-23T07:22:38;99796.88;;;19.03;55.79
45369;BME280;51342;55.250;37.668;2023-05-23T07:25:11;99801.56;;;19.15;56.15
45369;BME280;51342;55.250;37.668;2023-05-23T07:27:44;99803.56;;;19.25;56.10
45369;BME280;51342;55.250;37.668;2023-05-23T07:30:18;99803.81;;;19.36;55.46
45369;BME280;51342;55.250;37.668;2023-05-23T07:32:52;99803.22;;;19.47;54.52
45369;BME280;51342;55.250;37.668;2023-05-23T07:35:28;99804.31;;;19.57;54.46
45369;BME280;51342;55.250;37.668;2023-05-23T07:38:01;99801.16;;;19.72;54.76
45369;BME280;51342;55.250;37.668;2023-05-23T07:40:35;99808.53;;;19.88;55.42
45369;BME280;51342;55.250;37.668;2023-05-23T07:43:09;99793.81;;;19.96;52.88
45369;BME280;51342;55.250;37.668;2023-05-23T07:45:42;99801.88;;;20.04;53.88
45369;BME280;51342;55.250;37.668;2023-05-23T07:48:15;99802.88;;;20.10;54.12
45369;BME280;51342;55.250;37.668;2023-05-23T07:50:47;99787.91;;;20.06;53.38
45369;BME280;51342;55.250;37.668;2023-05-23T07:53:18;99798.59;;;20.16;52.64
45369;BME280;51342;55.250;37.668;2023-05-23T07:55:52;99803.00;;;20.17;52.73
45369;BME280;51342;55.250;37.668;2023-05-23T07:58:28;99797.88;;;20.23;52.34
45369;BME280;51342;55.250;37.668;2023-05-23T08:01:02;99801.47;;;20.28;53.71
45369;BME280;51342;55.250;37.668;2023-05-23T08:03:52;99797.19;;;20.33;53.76
45369;BME280;51342;55.250;37.668;2023-05-23T08:06:31;99799.94;;;20.39;54.14
45369;BME280;51342;55.250;37.668;2023-05-23T08:09:09;99798.28;;;20.44;53.99
45369;BME280;51342;55.250;37.668;2023-05-23T08:11:48;99801.09;;;20.52;53.71
45369;BME280;51342;55.250;37.668;2023-05-23T08:14:22;99799.34;;;20.52;53.41
45369;BME280;51342;55.250;37.668;2023-05-23T08:17:15;99784.41;;;20.50;53.22
45369;BME280;51342;55.250;37.668;2023-05-23T08:19:48;99802.09;;;20.58;52.14
45369;BME280;51342;55.250;37.668;2023-05-23T08:22:21;99790.66;;;20.55;53.36
45369;BME280;51342;55.250;37.668;2023-05-23T08:24:54;99796.91;;;20.63;52.37
45369;BME280;51342;55.250;37.668;2023-05-23T08:27:28;99794.28;;;20.61;52.24
45369;BME280;51342;55.250;37.668;2023-05-23T08:30:08;99786.09;;;20.48;51.19
45369;BME280;51342;55.250;37.668;2023-05-23T08:32:42;99794.00;;;20.48;50.61
45369;BME280;51342;55.250;37.668;2023-05-23T08:35:16;99793.09;;;20.47;53.30
45369;BME280;51342;55.250;37.668;2023-05-23T08:37:48;99798.56;;;20.56;53.83
45369;BME280;51342;55.250;37.668;2023-05-23T08:40:21;99805.56;;;20.57;54.56
45369;BME280;51342;55.250;37.668;2023-05-23T08:43:03;99804.66;;;20.54;52.48
45369;BME280;51342;55.250;37.668;2023-05-23T08:45:37;99802.56;;;20.37;52.71
45369;BME280;51342;55.250;37.668;2023-05-23T08:48:12;99813.72;;;20.26;53.02
45369;BME280;51342;55.250;37.668;2023-05-23T08:50:49;99810.84;;;20.15;53.85
45369;BME280;51342;55.250;37.668;2023-05-23T08:53:25;99813.41;;;20.12;56.31
45369;BME280;51342;55.250;37.668;2023-05-23T08:56:04;99815.09;;;20.08;55.70
45369;BME280;51342;55.250;37.668;2023-05-23T08:58:46;99816.66;;;20.00;55.64
45369;BME280;51342;55.250;37.668;2023-05-23T09:01:24;99807.66;;;19.89;56.21
45369;BME280;51342;55.250;37.668;2023-05-23T09:04:05;99808.31;;;19.79;56.93
45369;BME280;51342;55.250;37.668;2023-05-23T09:07:01;99815.16;;;19.71;56.42
45369;BME280;51342;55.250;37.668;2023-05-23T09:09:36;99821.06;;;19.62;56.82
45369;BME280;51342;55.250;37.668;2023-05-23T09:12:10;99825.31;;;19.57;57.75
45369;BME280;51342;55.250;37.668;2023-05-23T09:14:46;99831.31;;;19.51;57.84
45369;BME280;51342;55.250;37.668;2023-05-23T09:17:20;99824.19;;;19.47;58.47
45369;BME280;51342;55.250;37.668;2023-05-23T09:19:55;99828.84;;;19.23;58.64
45369;BME280;51342;55.250;37.668;2023-05-23T09:22:45;99828.31;;;19.36;58.88
45369;BME280;51342;55.250;37.668;2023-05-23T09:25:20;99825.59;;;19.33;57.96
45369;BME280;51342;55.250;37.668;2023-05-23T09:27:54;99826.41;;;19.29;58.67
45369;BME280;51342;55.250;37.668;2023-05-23T09:30:33;99830.63;;;19.24;58.68
45369;BME280;51342;55.250;37.668;2023-05-23T09:33:10;99832.25;;;19.19;60.20
45369;BME280;51342;55.250;37.668;2023-05-23T09:35:47;99833.13;;;19.19;60.65
45369;BME280;51342;55.250;37.668;2023-05-23T09:38:20;99832.97;;;19.12;61.17
45369;BME280;51342;55.250;37.668;2023-05-23T09:40:55;99835.41;;;19.05;61.34
45369;BME280;51342;55.250;37.668;2023-05-23T09:43:28;99830.78;;;18.95;61.32
45369;BME280;51342;55.250;37.668;2023-05-23T09:46:10;99837.41;;;18.81;63.26
45369;BME280;51342;55.250;37.668;2023-05-23T09:48:49;99832.75;;;18.71;64.10
45369;BME280;51342;55.250;37.668;2023-05-23T09:51:34;99842.38;;;18.72;64.69
45369;BME280;51342;55.250;37.668;2023-05-23T09:54:06;99835.97;;;18.61;64.69
45369;BME280;51342;55.250;37.668;2023-05-23T09:56:41;99851.69;;;18.61;65.13
45369;BME280;51342;55.250;37.668;2023-05-23T09:59:16;99849.72;;;18.53;65.01
45369;BME280;51342;55.250;37.668;2023-05-23T10:02:01;99853.00;;;18.46;65.46
45369;BME280;51342;55.250;37.668;2023-05-23T10:04:34;99855.53;;;18.43;66.25
45369;BME280;51342;55.250;37.668;2023-05-23T10:07:14;99843.22;;;18.39;66.60
45369;BME280;51342;55.250;37.668;2023-05-23T10:09:55;99851.06;;;18.39;66.99
45369;BME280;51342;55.250;37.668;2023-05-23T10:12:42;99845.75;;;18.36;67.18
45369;BME280;51342;55.250;37.668;2023-05-23T10:15:19;99860.59;;;18.37;67.76
45369;BME280;51342;55.250;37.668;2023-05-23T10:18:15;99849.19;;;18.34;68.32
45369;BME280;51342;55.250;37.668;2023-05-23T10:20:52;99855.03;;;18.25;68.30
45369;BME280;51342;55.250;37.668;2023-05-23T10:23:27;99859.06;;;18.14;68.55
45369;BME280;51342;55.250;37.668;2023-05-23T10:26:03;99863.16;;;18.04;68.51
45369;BME280;51342;55.250;37.668;2023-05-23T10:28:37;99868.13;;;17.69;69.15
45369;BME280;51342;55.250;37.668;2023-05-23T10:31:10;99870.16;;;17.77;70.16
45369;BME280;51342;55.250;37.668;2023-05-23T10:33:51;99867.53;;;17.77;69.98
45369;BME280;51342;55.250;37.668;2023-05-23T10:37:20;99869.16;;;17.73;70.19
45369;BME280;51342;55.250;37.668;2023-05-23T10:45:22;99882.72;;;17.61;71.29
45369;BME280;51342;55.250;37.668;2023-05-23T10:48:00;99874.72;;;17.57;71.45
45369;BME280;51342;55.250;37.668;2023-05-23T10:50:35;99871.94;;;17.52;71.33
45369;BME280;51342;55.250;37.668;2023-05-23T10:53:15;99862.13;;;17.45;71.61
45369;BME280;51342;55.250;37.668;2023-05-23T10:55:47;99880.41;;;17.43;71.70
45369;BME280;51342;55.250;37.668;2023-05-23T10:58:19;99875.16;;;17.43;71.79
45369;BME280;51342;55.250;37.668;2023-05-23T11:00:54;99867.41;;;17.46;72.00
45369;BME280;51342;55.250;37.668;2023-05-23T11:03:31;99870.03;;;17.46;72.30
45369;BME280;51342;55.250;37.668;2023-05-23T11:06:04;99875.31;;;17.48;72.44
45369;BME280;51342;55.250;37.668;2023-05-23T11:08:37;99864.78;;;17.46;72.32
45369;BME280;51342;55.250;37.668;2023-05-23T11:11:10;99863.13;;;17.48;72.34
45369;BME280;51342;55.250;37.668;2023-05-23T11:13:58;99854.41;;;17.48;72.14
45369;BME280;51342;55.250;37.668;2023-05-23T11:16:41;99859.81;;;17.54;72.54
45369;BME280;51342;55.250;37.668;2023-05-23T11:21:58;99843.28;;;17.55;72.30
45369;BME280;51342;55.250;37.668;2023-05-23T11:24:53;99843.94;;;17.48;71.74
45369;BME280;51342;55.250;37.668;2023-05-23T11:30:10;99839.94;;;17.59;72.31
45369;BME280;51342;55.250;37.668;2023-05-23T11:32:50;99838.38;;;17.66;72.20
45369;BME280;51342;55.250;37.668;2023-05-23T11:35:22;99834.19;;;17.71;71.98
45369;BME280;51342;55.250;37.668;2023-05-23T11:37:55;99826.28;;;17.69;71.53
45369;BME280;51342;55.250;37.668;2023-05-23T11:40:34;99815.97;;;17.74;72.08
45369;BME280;51342;55.250;37.668;2023-05-23T11:43:08;99827.34;;;17.74;72.09
45369;BME280;51342;55.250;37.668;2023-05-23T11:45:40;99816.16;;;17.80;72.23
45369;BME280;51342;55.250;37.668;2023-05-23T11:48:13;99801.44;;;17.84;71.96
45369;BME280;51342;55.250;37.668;2023-05-23T11:50:50;99800.59;;;17.85;71.75
45369;BME280;51342;55.250;37.668;2023-05-23T11:53:22;99798.00;;;17.85;72.13
45369;BME280;51342;55.250;37.668;2023-05-23T11:56:01;99787.63;;;17.88;71.74
45369;BME280;51342;55.250;37.668;2023-05-23T11:58:33;99800.25;;;17.72;72.25
45369;BME280;51342;55.250;37.668;2023-05-23T12:01:07;99798.03;;;17.86;72.31
45369;BME280;51342;55.250;37.668;2023-05-23T12:03:47;99800.03;;;17.95;71.91
45369;BME280;51342;55.250;37.668;2023-05-23T12:06:19;99804.56;;;18.00;72.33
45369;BME280;51342;55.250;37.668;2023-05-23T12:08:51;99806.44;;;18.05;72.11
45369;BME280;51342;55.250;37.668;2023-05-23T12:11:23;99806.63;;;18.11;71.52
45369;BME280;51342;55.250;37.668;2023-05-23T12:13:56;99809.31;;;18.14;71.18
45369;BME280;51342;55.250;37.668;2023-05-23T12:16:28;99810.25;;;18.16;70.58
45369;BME280;51342;55.250;37.668;2023-05-23T12:19:01;99806.03;;;18.21;71.39
45369;BME280;51342;55.250;37.668;2023-05-23T12:21:48;99801.56;;;18.17;70.94
45369;BME280;51342;55.250;37.668;2023-05-23T12:24:21;99811.34;;;18.24;70.87
45369;BME280;51342;55.250;37.668;2023-05-23T12:26:58;99811.31;;;18.22;70.98
45369;BME280;51342;55.250;37.668;2023-05-23T12:29:31;99807.88;;;18.25;70.69
45369;BME280;51342;55.250;37.668;2023-05-23T12:32:04;99814.78;;;18.21;70.92
45369;BME280;51342;55.250;37.668;2023-05-23T12:34:48;99819.13;;;18.21;71.06
45369;BME280;51342;55.250;37.668;2023-05-23T12:37:20;99809.44;;;18.18;70.89
45369;BME280;51342;55.250;37.668;2023-05-23T12:39:52;99810.31;;;18.19;70.82
45369;BME280;51342;55.250;37.668;2023-05-23T12:42:23;99806.84;;;18.20;71.10
45369;BME280;51342;55.250;37.668;2023-05-23T12:44:54;99808.75;;;18.25;70.95
45369;BME280;51342;55.250;37.668;2023-05-23T12:47:26;99803.59;;;18.27;71.05
45369;BME280;51342;55.250;37.668;2023-05-23T12:49:57;99810.59;;;18.28;70.55
45369;BME280;51342;55.250;37.668;2023-05-23T12:52:29;99797.53;;;18.30;70.47
45369;BME280;51342;55.250;37.668;2023-05-23T12:55:00;99796.72;;;18.32;70.63
45369;BME280;51342;55.250;37.668;2023-05-23T12:57:33;99803.78;;;18.35;69.99
45369;BME280;51342;55.250;37.668;2023-05-23T13:00:05;99803.78;;;18.35;69.26
45369;BME280;51342;55.250;37.668;2023-05-23T13:02:49;99808.16;;;18.34;69.69
45369;BME280;51342;55.250;37.668;2023-05-23T13:05:20;99806.31;;;18.32;69.23
45369;BME280;51342;55.250;37.668;2023-05-23T13:07:52;99821.25;;;18.34;69.25
45369;BME280;51342;55.250;37.668;2023-05-23T13:10:24;99822.09;;;18.33;69.73
45369;BME280;51342;55.250;37.668;2023-05-23T13:12:55;99818.53;;;18.31;69.29
45369;BME280;51342;55.250;37.668;2023-05-23T13:15:26;99817.66;;;18.32;70.17
45369;BME280;51342;55.250;37.668;2023-05-23T13:17:58;99819.50;;;18.35;70.72
45369;BME280;51342;55.250;37.668;2023-05-23T13:20:29;99811.66;;;18.35;70.42
45369;BME280;51342;55.250;37.668;2023-05-23T13:23:01;99804.69;;;18.35;70.62
45369;BME280;51342;55.250;37.668;2023-05-23T13:25:32;99805.56;;;18.36;71.15
45369;BME280;51342;55.250;37.668;2023-05-23T13:28:03;99801.22;;;18.36;71.25
45369;BME280;51342;55.250;37.668;2023-05-23T13:30:35;99803.81;;;18.36;72.32
45369;BME280;51342;55.250;37.668;2023-05-23T13:33:06;99798.53;;;18.33;72.74
45369;BME280;51342;55.250;37.668;2023-05-23T13:35:38;99795.91;;;18.33;72.96
45369;BME280;51342;55.250;37.668;2023-05-23T13:38:09;99791.47;;;18.32;73.74
45369;BME280;51342;55.250;37.668;2023-05-23T13:40:40;99795.84;;;18.32;73.50
45369;BME280;51342;55.250;37.668;2023-05-23T13:43:12;99796.66;;;18.29;73.96
45369;BME280;51342;55.250;37.668;2023-05-23T13:45:43;99783.44;;;18.24;73.54
45369;BME280;51342;55.250;37.668;2023-05-23T13:48:15;99794.84;;;18.26;73.25
45369;BME280;51342;55.250;37.668;2023-05-23T13:50:46;99794.84;;;18.26;72.63
45369;BME280;51342;55.250;37.668;2023-05-23T13:53:17;99780.78;;;18.23;72.72
45369;BME280;51342;55.250;37.668;2023-05-23T13:55:49;99789.47;;;18.22;72.33